• Join FlightAware (Why Join?)
  • Login
  • US Flag 
07:08PM EDT


 

Airport Tracker/Info


-or-


 

Live Flight TrackerFlight Track Log ✈ SWA1718 ✈ 01-May-2013 ✈ KDEN - KMDW

Flight Track Log - Related Links

Times and Time Zones

All times are in EDT time to prevent confusion due to time zone crossing. See the SWA1718 flight status page for this flight to view local times or setup timezone preferences in your user account.

Time Position Orientation Groundspeed Altitude Reporting Facility
EDT Latitude Longitude Course Direction KTS MPH feet Rate Location/Type
06:59PM 39.9069 -104.6508 77° East 189 217 7,300  Level Denver Center
07:00PM 39.9214 -104.5683 77° East 229 264 10,000 1,260 Climbing Denver Center
07:01PM 39.9414 -104.4661 76° East 297 342 10,000 1,260 Level Denver Center
07:02PM 39.9344 -104.3428 94° East 317 365 12,700 2,400 Climbing Denver Center
07:03PM 39.9244 -104.2167 96° East 347 399 15,000 2,340 Climbing Denver Center
07:04PM 39.9131 -104.0828 96° East 369 425 17,600 2,220 Climbing Denver Center
07:05PM 39.9008 -103.9381 96° East 374 430 19,700 1,740 Climbing Denver Center
07:06PM 39.8886 -103.7939 96° East 400 460 21,200 1,800 Climbing Denver Center
07:07PM 39.8950 -103.6397 87° East 412 474 23,400 2,040 Climbing Denver Center
07:08PM 39.9122 -103.4842 82° East 429 494 25,400 1,740 Climbing Denver Center
07:09PM 39.9294 -103.3267 82° East 434 499 27,000 1,320 Climbing Denver Center
07:10PM 39.9481 -103.1636 81° East 450 518 28,200 1,200 Climbing Denver Center
07:11PM 39.9661 -102.9958 82° East 462 532 29,500 1,320 Climbing Denver Center
07:12PM 39.9853 -102.8244 82° East 472 543 31,000 1,260 Climbing Denver Center
07:13PM 40.0061 -102.6386 82° East 476 548 32,100 1,080 Climbing Denver Center
07:14PM 40.0250 -102.4403 83° East 492 566 33,300 1,200 Climbing Denver Center
07:15PM 40.0428 -102.2722 82° East 490 564 34,700 780 Climbing Denver Center
07:16PM 40.0631 -102.0778 82° East 486 559 35,000 120 Climbing Denver Center
07:17PM 40.0800 -101.9125 82° East 483 556 35,000  Level Denver Center
07:18PM 40.0956 -101.7447 83° East 486 559 35,000  Level Denver Center
07:19PM 40.1147 -101.5494 83° East 487 560 35,000  Level Denver Center
07:20PM 40.1311 -101.3808 83° East 490 564 35,000  Level Denver Center
07:21PM 40.1497 -101.1853 83° East 489 563 35,000  Level Denver Center
07:22PM 40.1650 -101.0181 83° East 487 560 35,000  Level Denver Center
07:23PM 40.1828 -100.8222 83° East 487 560 35,000  Level Denver Center
07:24PM 40.1986 -100.6531 83° East 491 565 35,000  Level Denver Center
07:26PM 40.2061 -100.4550 87° East 489 563 35,000  Level Denver Center
07:27PM 40.2092 -100.2864 89° East 488 562 35,000  Level Denver Center
07:28PM 40.2108 -100.0886 89° East 490 564 35,000  Level Denver Center
07:29PM 40.2136 -99.9186 89° East 490 564 35,000  Level Denver Center
07:30PM 40.2158 -99.7306 89° East 482 555 35,000  Level Denver Center
07:31PM 40.2175 -99.5558 89° East 481 554 35,000  Level Denver Center
07:32PM 40.2189 -99.3803 89° East 483 556 35,000  Level Denver Center
07:33PM 40.2208 -99.2067 89° East 479 551 35,000  Level Denver Center
07:34PM 40.2217 -99.0319 90° East 481 554 35,000  Level Denver Center
07:35PM 40.2219 -98.8603 90° East 479 551 35,000  Level Minneapolis Center
07:36PM 40.2225 -98.6914 90° East 471 542 35,000  Level Minneapolis Center
07:37PM 40.2222 -98.5233 90° East 466 536 35,000  Level Minneapolis Center
07:38PM 40.2219 -98.3228 90° East 462 532 35,000 300 Level Minneapolis Center
07:39PM 40.2222 -98.1547 90° East 463 533 35,700 960 Climbing Minneapolis Center
07:40PM 40.2219 -97.9917 90° East 454 522 37,000 600 Climbing Minneapolis Center
07:41PM 40.2200 -97.7989 91° East 445 512 37,000  Level Minneapolis Center
07:42PM 40.2211 -97.6397 89° East 441 507 37,000  Level Minneapolis Center
07:43PM 40.2219 -97.4794 90° East 440 506 37,000  Level Minneapolis Center
07:44PM 40.2231 -97.3225 89° East 441 507 37,000  Level Minneapolis Center
07:45PM 40.2222 -97.1594 90° East 446 513 37,000  Level Minneapolis Center
07:46PM 40.2228 -96.9939 90° East 452 520 37,000  Level Minneapolis Center
07:47PM 40.2219 -96.7950 90° East 457 526 37,000  Level Minneapolis Center
07:48PM 40.2217 -96.6286 90° East 459 528 37,000  Level Minneapolis Center
07:49PM 40.2206 -96.4614 90° East 460 529 37,000  Level Minneapolis Center
07:50PM 40.2192 -96.2975 91° East 457 526 37,000  Level Minneapolis Center
07:51PM 40.2175 -96.1294 91° East 460 529 37,000  Level Minneapolis Center
07:52PM 40.2164 -95.9633 90° East 461 531 37,000  Level Minneapolis Center
07:53PM 40.2158 -95.7928 90° East 467 537 37,000  Level Minneapolis Center
07:54PM 40.2131 -95.5911 91° East 465 535 37,000  Level Minneapolis Center
07:55PM 40.2106 -95.4239 91° East 462 532 37,000  Level Minneapolis Center
07:56PM 40.2083 -95.2567 91° East 462 532 37,000  Level Minneapolis Center
07:57PM 40.2067 -95.0922 91° East 457 526 37,000  Level Minneapolis Center
07:59PM 40.2022 -94.9269 92° East 457 526 37,000  Level Minneapolis Center
08:00PM 40.1997 -94.7936 91° East 457 526 37,000  Level Minneapolis Center
08:01PM 40.1947 -94.5631 92° East 456 525 37,000  Level Minneapolis Center
08:02PM 40.1906 -94.3994 92° East 457 526 37,000  Level Minneapolis Center
08:03PM 40.1872 -94.2372 91° East 455 524 37,000  Level Minneapolis Center
08:04PM 40.1814 -94.0753 93° East 453 521 37,000  Level Kansas City Center
08:05PM 40.1767 -93.9122 92° East 453 521 37,000  Level Kansas City Center
08:06PM 40.1714 -93.7172 92° East 448 516 37,000  Level Kansas City Center
08:07PM 40.1664 -93.5594 92° East 446 513 37,000  Level Kansas City Center
08:08PM 40.1628 -93.4000 92° East 445 512 37,000  Level Kansas City Center
08:09PM 40.1842 -93.2411 80° East 449 517 37,000  Level Kansas City Center
08:10PM 40.2100 -93.0853 78° East 442 509 37,000  Level Kansas City Center
08:11PM 40.2386 -92.9019 78° East 444 511 37,000  Level Kansas City Center
08:12PM 40.2622 -92.7511 78° East 443 510 37,000  Level Kansas City Center
08:13PM 40.2911 -92.5753 78° East 442 509 37,000  Level Kansas City Center
08:14PM 40.3158 -92.4242 78° East 443 510 37,000 -120 Level Kansas City Center
08:15PM 40.3389 -92.2492 80° East 450 518 36,800 -600 Descending Kansas City Center
08:16PM 40.3628 -92.0914 79° East 446 513 35,800 -1,020 Descending Kansas City Center
08:17PM 40.3847 -91.9353 79° East 442 509 34,800 -960 Descending Kansas City Center
08:18PM 40.4078 -91.7786 79° East 441 507 33,900 -960 Descending Kansas City Center
08:19PM 40.4300 -91.6219 79° East 441 507 32,900 -1,020 Descending Kansas City Center
08:20PM 40.4450 -91.5275 78° East 441 507 32,400 -1,020 Descending Chicago Center
08:21PM 40.4669 -91.3697 80° East 444 511 31,400 -720 Descending Chicago Center
08:22PM 40.4906 -91.2042 79° East 450 518 31,000 -240 Descending Chicago Center
08:23PM 40.5122 -91.0422 80° East 450 518 31,000  Level Chicago Center
08:25PM 40.5631 -90.6828 79° East 455 524 31,000  Level Chicago Center
08:26PM 40.5839 -90.5206 80° East 451 519 31,000  Level Chicago Center
08:27PM 40.6056 -90.3583 80° East 451 519 31,000  Level Chicago Center
08:28PM 40.6283 -90.1925 80° East 448 516 31,000 -240 Level Chicago Center
08:29PM 40.6492 -90.0322 80° East 447 514 30,500 -1,020 Descending Chicago Center
08:30PM 40.6689 -89.8675 81° East 457 526 28,900 -2,880 Descending Chicago Center
08:31PM 40.7233 -89.6842 69° East 455 524 24,600 -3,540 Descending Chicago Center
08:32PM 40.7861 -89.5425 60° Northeast 452 520 21,700 -2,640 Descending Chicago Center
08:33PM 40.8408 -89.4219 59° Northeast 437 503 19,200 -2,340 Descending Chicago Center
08:34PM 40.9067 -89.2664 61° Northeast 405 466 16,900 -1,500 Descending Chicago Center
08:35PM 40.9614 -89.1364 61° Northeast 405 466 16,200 -840 Descending Chicago Center
08:36PM 41.0211 -88.9961 61° Northeast 403 464 15,200 -1,020 Descending Chicago Center
08:37PM 41.0739 -88.8711 61° Northeast 394 453 14,100 -1,020 Descending Chicago Center
08:38PM 41.1244 -88.7481 61° Northeast 383 441 13,200 -1,260 Descending Chicago Center
08:39PM 41.1886 -88.6419 51° Northeast 376 433 11,500 -1,740 Descending Chicago Center
08:40PM 41.2717 -88.5678 34° Northeast 360 414 9,700 -2,040 Descending Chicago Center
08:41PM 41.3533 -88.4961 33° Northeast 301 346 7,300 -1,800 Descending Chicago Center
08:42PM 41.3972 -88.4125 55° Northeast 286 329 6,000 -720 Descending Chicago Center
08:43PM 41.4300 -88.3183 65° Northeast 282 325 5,900 -240 Descending Chicago Center
08:44PM 41.4642 -88.2239 64° Northeast 283 326 5,600 -540 Descending Chicago Center
08:45PM 41.4978 -88.1317 64° Northeast 276 318 4,900 -360 Descending Chicago Center
08:47PM 41.5306 -88.0364 65° Northeast 279 321 4,900 -300 Level Chicago Center
08:48PM 41.5500 -87.9378 75° East 276 318 4,400 -840 Descending Chicago Center
08:49PM 41.5717 -87.8425 73° East 272 313 3,200 -1,020 Descending Chicago Center
08:50PM 41.6092 -87.7381 64° Northeast 275 316 2,400 -420 Descending Chicago Center
08:51PM 41.6728 -87.6900 29° Northeast 269 310 2,400 -240 Level Chicago Center
08:52PM 41.7375 -87.6575 21° North 263 303 2,000 -360 Descending Chicago Center
08:53PM 41.7917 -87.6864 338° Northwest 232 267 1,700 -540 Descending Chicago Center
08:54PM 41.8081 -87.7275 298° West 169 194 1,000 -720 Descending Chicago Center